createdAt,value
2017-10-30T00:00:23.824Z,0.00
2017-10-30T00:01:23.811Z,0.00
2017-10-30T00:02:23.796Z,0.00
2017-10-30T00:03:23.783Z,0.00
2017-10-30T00:04:23.768Z,0.00
2017-10-30T00:05:23.754Z,0.00
2017-10-30T00:06:23.740Z,0.00
2017-10-30T00:07:23.726Z,0.00
2017-10-30T00:08:23.711Z,0.00
2017-10-30T00:09:23.713Z,0.00
2017-10-30T00:10:23.683Z,0.00
2017-10-30T00:11:23.670Z,0.00
2017-10-30T00:12:23.655Z,0.00
2017-10-30T00:13:23.643Z,0.00
2017-10-30T00:14:23.627Z,0.00
2017-10-30T00:15:23.613Z,0.00
2017-10-30T00:16:23.598Z,0.00
2017-10-30T00:17:23.584Z,0.00
2017-10-30T00:18:23.576Z,0.00
2017-10-30T00:19:23.556Z,0.00
2017-10-30T00:20:23.541Z,0.00
2017-10-30T00:21:23.531Z,0.00
2017-10-30T00:22:23.514Z,0.00
2017-10-30T00:23:23.499Z,0.00
2017-10-30T00:24:23.485Z,0.00
2017-10-30T00:25:23.471Z,0.00
2017-10-30T00:26:23.456Z,0.00
2017-10-30T00:27:23.447Z,0.00
2017-10-30T00:28:23.428Z,0.00
2017-10-30T00:29:23.414Z,0.00
2017-10-30T00:30:23.400Z,0.00
2017-10-30T00:31:23.386Z,0.00
2017-10-30T00:32:23.374Z,0.00
2017-10-30T00:33:23.358Z,0.00
2017-10-30T00:34:23.348Z,0.00
2017-10-30T00:35:23.329Z,0.00
2017-10-30T00:36:23.314Z,0.00
2017-10-30T00:37:23.300Z,0.00
2017-10-30T00:38:23.287Z,0.00
2017-10-30T00:39:23.272Z,0.00
2017-10-30T00:40:23.258Z,0.00
2017-10-30T00:41:23.244Z,0.00
2017-10-30T00:42:23.230Z,0.00
2017-10-30T00:43:23.216Z,0.00
2017-10-30T00:44:23.201Z,0.00
2017-10-30T00:45:23.187Z,0.00
2017-10-30T00:46:23.173Z,0.00
2017-10-30T00:47:23.158Z,0.00
2017-10-30T00:48:23.143Z,0.00
2017-10-30T00:49:23.130Z,0.00
2017-10-30T00:50:23.115Z,0.00
2017-10-30T00:51:23.102Z,0.00
2017-10-30T00:52:23.087Z,0.00
2017-10-30T00:53:23.073Z,0.00
2017-10-30T00:54:23.060Z,0.00
2017-10-30T00:55:23.048Z,0.00
2017-10-30T00:56:23.030Z,0.00
2017-10-30T00:57:23.016Z,0.00
2017-10-30T00:58:23.002Z,0.00
2017-10-30T00:59:22.987Z,0.00
2017-10-30T01:00:22.973Z,0.00
2017-10-30T01:01:22.959Z,0.00
2017-10-30T01:02:22.944Z,0.00
2017-10-30T01:03:22.935Z,0.00
2017-10-30T01:04:22.915Z,0.00
2017-10-30T01:05:22.902Z,0.00
2017-10-30T01:06:22.887Z,0.00
2017-10-30T01:07:22.872Z,0.00
2017-10-30T01:08:22.859Z,0.00
2017-10-30T01:09:22.844Z,0.00
2017-10-30T01:10:22.831Z,0.00
2017-10-30T01:11:22.817Z,0.00
2017-10-30T01:12:22.801Z,0.00
2017-10-30T01:13:22.789Z,0.00
2017-10-30T01:14:22.773Z,0.00
2017-10-30T01:15:22.759Z,0.00
2017-10-30T01:16:22.753Z,0.00
2017-10-30T01:17:22.729Z,0.00
2017-10-30T01:18:22.716Z,0.00
2017-10-30T01:19:22.702Z,0.00
2017-10-30T01:20:22.687Z,0.00
2017-10-30T01:21:22.672Z,0.00
2017-10-30T01:22:22.658Z,0.00
2017-10-30T01:23:22.644Z,0.00
2017-10-30T01:24:22.629Z,0.00
2017-10-30T01:25:22.616Z,0.00
2017-10-30T01:26:22.602Z,0.00
2017-10-30T01:27:22.587Z,0.00
2017-10-30T01:28:22.573Z,0.00
2017-10-30T01:29:22.558Z,0.00
2017-10-30T01:30:22.544Z,0.00
2017-10-30T01:31:22.530Z,0.00
2017-10-30T01:32:22.515Z,0.00
2017-10-30T01:33:22.501Z,0.00
2017-10-30T01:34:22.487Z,0.00
2017-10-30T01:35:22.473Z,0.00
2017-10-30T01:36:22.458Z,0.00
2017-10-30T01:37:22.443Z,0.00
2017-10-30T01:38:22.429Z,0.00
2017-10-30T01:39:22.415Z,0.00
2017-10-30T01:40:22.400Z,0.00
2017-10-30T01:41:22.386Z,0.00
2017-10-30T01:42:22.373Z,0.00
2017-10-30T01:43:22.358Z,0.00
2017-10-30T01:44:22.343Z,0.00
2017-10-30T01:45:22.329Z,0.00
2017-10-30T01:46:22.319Z,0.00
2017-10-30T01:47:22.300Z,0.00
2017-10-30T01:48:22.285Z,0.00
2017-10-30T01:49:22.271Z,0.00
2017-10-30T01:50:22.258Z,0.00
2017-10-30T01:51:22.243Z,0.00
2017-10-30T01:52:22.228Z,0.00
2017-10-30T01:53:22.214Z,0.00
2017-10-30T01:54:22.204Z,0.00
2017-10-30T01:55:22.185Z,0.00
2017-10-30T01:56:22.170Z,0.00
2017-10-30T01:57:22.157Z,0.00
2017-10-30T01:58:22.144Z,0.00
2017-10-30T01:59:22.130Z,0.00
2017-10-30T02:00:22.115Z,0.00
2017-10-30T02:01:22.099Z,0.00
2017-10-30T02:02:22.085Z,0.00
2017-10-30T02:03:22.070Z,0.00
2017-10-30T02:04:22.060Z,0.00
2017-10-30T02:05:22.041Z,0.00
2017-10-30T02:06:22.027Z,0.00
2017-10-30T02:07:22.013Z,0.00
2017-10-30T02:08:21.997Z,0.00
2017-10-30T02:09:21.983Z,0.00
2017-10-30T02:10:21.969Z,0.00
2017-10-30T02:11:21.954Z,0.00
2017-10-30T02:12:21.942Z,0.00
2017-10-30T02:13:21.926Z,0.00
2017-10-30T02:14:21.912Z,0.00
2017-10-30T02:15:21.898Z,0.00
2017-10-30T02:16:21.883Z,0.00
2017-10-30T02:17:21.868Z,0.00
2017-10-30T02:18:21.853Z,0.00
2017-10-30T02:19:21.840Z,0.00
2017-10-30T02:20:21.825Z,0.00
2017-10-30T02:21:21.815Z,0.00
2017-10-30T02:22:21.800Z,0.00
2017-10-30T02:23:21.782Z,0.00
2017-10-30T02:24:21.767Z,0.00
2017-10-30T02:25:21.753Z,0.00
2017-10-30T02:26:21.740Z,0.00
2017-10-30T02:27:21.725Z,0.00
2017-10-30T02:28:21.710Z,0.00
2017-10-30T02:29:21.695Z,0.00
2017-10-30T02:30:21.683Z,0.00
2017-10-30T02:31:21.667Z,0.00
2017-10-30T02:32:21.653Z,0.00
2017-10-30T02:33:21.638Z,0.00
2017-10-30T02:34:21.622Z,0.00
2017-10-30T02:35:21.610Z,0.00
2017-10-30T02:36:21.594Z,0.00
2017-10-30T02:37:21.581Z,0.00
2017-10-30T02:38:21.568Z,0.00
2017-10-30T02:39:21.553Z,0.00
2017-10-30T02:40:21.537Z,0.00
2017-10-30T02:41:21.523Z,0.00
2017-10-30T02:42:21.508Z,0.00
2017-10-30T02:43:21.496Z,0.00
2017-10-30T02:44:21.479Z,0.00
2017-10-30T02:45:21.465Z,0.00
2017-10-30T02:46:21.451Z,0.00
2017-10-30T02:47:21.437Z,0.00
2017-10-30T02:48:21.421Z,0.00
2017-10-30T02:49:21.407Z,0.00
2017-10-30T02:50:21.393Z,0.00
2017-10-30T02:51:21.380Z,0.00
2017-10-30T02:52:21.364Z,0.00
2017-10-30T02:53:21.351Z,0.00
2017-10-30T02:54:21.336Z,0.00
2017-10-30T02:55:21.322Z,0.00
2017-10-30T02:56:21.307Z,0.00
2017-10-30T02:57:21.292Z,0.00
2017-10-30T02:58:21.278Z,0.00
2017-10-30T02:59:21.264Z,0.00
2017-10-30T03:00:21.249Z,0.00
2017-10-30T03:01:21.236Z,0.00
2017-10-30T03:02:21.221Z,0.00
2017-10-30T03:03:21.207Z,0.00
2017-10-30T03:04:21.191Z,0.00
2017-10-30T03:05:21.176Z,0.00
2017-10-30T03:06:21.163Z,0.00
2017-10-30T03:07:21.149Z,0.00
2017-10-30T03:08:21.134Z,0.00
2017-10-30T03:09:21.120Z,0.00
2017-10-30T03:10:21.105Z,0.00
2017-10-30T03:11:21.091Z,0.00
2017-10-30T03:12:21.076Z,0.00
2017-10-30T03:13:21.062Z,0.00
2017-10-30T03:14:21.048Z,0.00
2017-10-30T03:15:21.032Z,0.00
2017-10-30T03:16:21.018Z,0.00
2017-10-30T03:17:21.004Z,0.00
2017-10-30T03:18:20.990Z,0.00
2017-10-30T03:19:20.976Z,0.00
2017-10-30T03:20:20.961Z,0.00
2017-10-30T03:21:20.946Z,0.00
2017-10-30T03:22:20.932Z,0.00
2017-10-30T03:23:20.918Z,0.00
2017-10-30T03:24:20.903Z,0.00
2017-10-30T03:25:20.889Z,0.00
2017-10-30T03:26:20.876Z,0.00
2017-10-30T03:27:20.860Z,0.00
2017-10-30T03:28:20.844Z,0.00
2017-10-30T03:29:20.831Z,0.00
2017-10-30T03:30:20.821Z,0.00
2017-10-30T03:31:20.802Z,0.00
2017-10-30T03:32:20.788Z,0.00
2017-10-30T03:33:20.773Z,0.00
2017-10-30T03:34:20.759Z,0.00
2017-10-30T03:35:20.744Z,0.00
2017-10-30T03:36:20.730Z,0.00
2017-10-30T03:37:20.715Z,0.00
2017-10-30T03:38:20.701Z,0.00
2017-10-30T03:39:20.687Z,0.00
2017-10-30T03:40:20.690Z,0.00
2017-10-30T03:41:20.657Z,0.00
2017-10-30T03:42:20.642Z,0.00
2017-10-30T03:43:20.629Z,0.00
2017-10-30T03:44:20.613Z,0.00
2017-10-30T03:45:20.599Z,0.00
2017-10-30T03:46:20.585Z,0.00
2017-10-30T03:47:20.572Z,0.00
2017-10-30T03:48:20.556Z,0.00
2017-10-30T03:49:20.540Z,0.00
2017-10-30T03:50:20.578Z,0.00
2017-10-30T03:51:20.512Z,0.00
2017-10-30T03:52:20.498Z,0.00
2017-10-30T03:53:20.484Z,0.00
2017-10-30T03:54:20.469Z,0.00
2017-10-30T03:55:20.455Z,0.00
2017-10-30T03:56:20.446Z,0.00
2017-10-30T03:57:20.426Z,0.00
2017-10-30T03:58:20.411Z,0.00
2017-10-30T03:59:20.398Z,0.00
2017-10-30T04:00:20.387Z,0.00
2017-10-30T04:01:20.368Z,0.00
2017-10-30T04:02:20.353Z,0.00
2017-10-30T04:03:20.341Z,0.00
2017-10-30T04:04:20.325Z,0.00
2017-10-30T04:05:20.311Z,0.00
2017-10-30T04:06:20.297Z,0.00
2017-10-30T04:07:20.283Z,0.00
2017-10-30T04:08:20.267Z,0.00
2017-10-30T04:09:20.253Z,0.00
2017-10-30T04:10:20.239Z,0.00
2017-10-30T04:11:20.226Z,0.00
2017-10-30T04:12:20.210Z,0.00
2017-10-30T04:13:20.195Z,0.00
2017-10-30T04:14:20.211Z,0.00
2017-10-30T04:15:20.169Z,0.00
2017-10-30T04:16:20.173Z,0.00
2017-10-30T04:17:20.139Z,0.00
2017-10-30T04:18:20.126Z,0.00
2017-10-30T04:19:20.111Z,0.00
2017-10-30T04:20:20.097Z,0.00
2017-10-30T04:21:20.082Z,0.00
2017-10-30T04:22:20.068Z,0.00
2017-10-30T04:23:20.056Z,0.00
2017-10-30T04:24:20.046Z,0.00
2017-10-30T04:25:20.026Z,0.00
2017-10-30T04:26:20.012Z,0.00
2017-10-30T04:27:19.996Z,0.00
2017-10-30T04:28:19.982Z,0.00
2017-10-30T04:29:19.969Z,0.00
2017-10-30T04:30:19.955Z,0.00
2017-10-30T04:31:19.940Z,0.00
2017-10-30T04:32:19.926Z,0.00
2017-10-30T04:33:19.912Z,0.00
2017-10-30T04:34:19.897Z,0.00
2017-10-30T04:35:19.883Z,0.00
2017-10-30T04:36:19.868Z,0.00
2017-10-30T04:37:19.858Z,0.00
2017-10-30T04:38:19.841Z,0.00
2017-10-30T04:39:19.827Z,0.00
2017-10-30T04:40:19.811Z,0.00
2017-10-30T04:41:19.797Z,0.00
2017-10-30T04:42:19.787Z,0.00
2017-10-30T04:43:19.769Z,0.00
2017-10-30T04:44:19.755Z,0.00
2017-10-30T04:45:19.740Z,0.00
2017-10-30T04:46:19.730Z,0.00
2017-10-30T04:47:19.717Z,0.00
2017-10-30T04:48:19.696Z,0.00
2017-10-30T04:49:19.683Z,0.00
2017-10-30T04:50:19.670Z,0.00
2017-10-30T04:51:19.655Z,0.00
2017-10-30T04:52:19.640Z,0.00
2017-10-30T04:53:19.627Z,0.00
2017-10-30T04:54:19.612Z,0.00
2017-10-30T04:55:19.598Z,0.00
2017-10-30T04:56:19.582Z,0.00
2017-10-30T04:57:19.568Z,0.00
2017-10-30T04:58:19.554Z,0.00
2017-10-30T04:59:19.540Z,0.00
2017-10-30T05:00:19.526Z,0.00
2017-10-30T05:01:19.510Z,0.00
2017-10-30T05:02:19.497Z,0.00
2017-10-30T05:03:19.483Z,0.00
2017-10-30T05:04:19.468Z,0.00
2017-10-30T05:05:19.453Z,0.00
2017-10-30T05:06:19.439Z,0.00
2017-10-30T05:07:19.425Z,0.00
2017-10-30T05:08:19.410Z,0.00
2017-10-30T05:09:19.396Z,0.00
2017-10-30T05:10:19.382Z,0.00
2017-10-30T05:11:19.366Z,0.00
2017-10-30T05:12:19.353Z,0.00
2017-10-30T05:13:19.338Z,0.00
2017-10-30T05:14:19.325Z,0.00
2017-10-30T05:15:19.310Z,0.00
2017-10-30T05:16:19.293Z,0.00
2017-10-30T05:17:19.279Z,0.00
2017-10-30T05:18:19.268Z,0.00
2017-10-30T05:19:19.252Z,0.00
2017-10-30T05:20:19.238Z,0.00
2017-10-30T05:21:19.223Z,0.00
2017-10-30T05:22:19.208Z,0.00
2017-10-30T05:23:19.194Z,0.00
2017-10-30T05:24:19.179Z,0.00
2017-10-30T05:25:19.165Z,0.00
2017-10-30T05:26:19.150Z,0.00
2017-10-30T05:27:19.136Z,0.00
2017-10-30T05:28:19.123Z,0.00
2017-10-30T05:29:19.111Z,0.00
2017-10-30T05:30:19.093Z,0.00
2017-10-30T05:31:19.079Z,0.00
2017-10-30T05:32:19.063Z,0.00
2017-10-30T05:33:19.049Z,0.00
2017-10-30T05:34:19.034Z,0.00
2017-10-30T05:35:19.020Z,0.00
2017-10-30T05:36:19.005Z,0.00
2017-10-30T05:37:18.992Z,0.00
2017-10-30T05:38:18.981Z,0.00
2017-10-30T05:39:18.963Z,0.00
2017-10-30T05:40:18.951Z,0.00
2017-10-30T05:41:18.940Z,0.00
2017-10-30T05:42:18.922Z,0.00
2017-10-30T05:43:18.908Z,0.00
2017-10-30T05:44:18.890Z,0.00
2017-10-30T05:45:18.876Z,0.00
2017-10-30T05:46:18.864Z,0.00
2017-10-30T05:47:18.848Z,0.00
2017-10-30T05:48:18.848Z,0.00
2017-10-30T05:49:18.818Z,0.00
2017-10-30T05:50:18.804Z,0.00
2017-10-30T05:51:18.790Z,0.00
2017-10-30T05:52:18.774Z,0.00
2017-10-30T05:53:18.760Z,0.00
2017-10-30T05:54:18.747Z,0.00
2017-10-30T05:55:18.733Z,0.00
2017-10-30T05:56:18.718Z,0.00
2017-10-30T05:57:18.703Z,0.00
2017-10-30T05:58:18.693Z,4.00
2017-10-30T05:59:18.675Z,0.00
2017-10-30T06:00:18.659Z,0.00
2017-10-30T06:01:18.646Z,4.00
2017-10-30T06:02:18.630Z,0.00
2017-10-30T06:03:18.616Z,4.00
2017-10-30T06:04:18.601Z,4.00
2017-10-30T06:05:18.588Z,4.00
2017-10-30T06:06:18.573Z,8.00
2017-10-30T06:07:18.558Z,8.00
2017-10-30T06:08:18.543Z,8.00
2017-10-30T06:09:18.533Z,8.00
2017-10-30T06:10:18.514Z,8.00
2017-10-30T06:11:18.501Z,12.00
2017-10-30T06:12:18.485Z,12.00
2017-10-30T06:13:18.470Z,16.00
2017-10-30T06:14:18.457Z,20.00
2017-10-30T06:15:18.443Z,20.00
2017-10-30T06:16:18.428Z,28.00
2017-10-30T06:17:18.414Z,28.00
2017-10-30T06:18:18.400Z,32.00
2017-10-30T06:19:18.385Z,36.00
2017-10-30T06:20:18.370Z,44.00
2017-10-30T06:21:18.356Z,48.00
2017-10-30T06:22:18.342Z,52.00
2017-10-30T06:23:18.326Z,56.00
2017-10-30T06:24:18.311Z,60.00
2017-10-30T06:25:18.298Z,68.00
2017-10-30T06:26:18.282Z,72.00
2017-10-30T06:27:18.269Z,80.00
2017-10-30T06:28:18.254Z,88.00
2017-10-30T06:29:18.240Z,92.00
2017-10-30T06:30:18.225Z,100.00
2017-10-30T06:31:18.211Z,108.00
2017-10-30T06:32:18.195Z,116.00
2017-10-30T06:33:18.181Z,124.00
2017-10-30T06:34:18.167Z,128.00
2017-10-30T06:35:18.151Z,136.00
2017-10-30T06:36:18.138Z,148.00
2017-10-30T06:37:18.124Z,156.00
2017-10-30T06:38:18.109Z,164.00
2017-10-30T06:39:18.094Z,176.00
2017-10-30T06:40:18.078Z,184.00
2017-10-30T06:41:18.066Z,200.00
2017-10-30T06:42:18.051Z,208.00
2017-10-30T06:43:18.037Z,220.00
2017-10-30T06:44:18.021Z,228.00
2017-10-30T06:45:18.007Z,240.00
2017-10-30T06:46:17.999Z,256.00
2017-10-30T06:47:17.979Z,268.00
2017-10-30T06:48:17.962Z,276.00
2017-10-30T06:49:17.949Z,292.00
2017-10-30T06:50:17.934Z,308.00
2017-10-30T06:51:17.919Z,324.00
2017-10-30T06:52:17.910Z,340.00
2017-10-30T06:53:17.890Z,344.00
2017-10-30T06:54:17.893Z,356.00
2017-10-30T06:55:17.861Z,368.00
2017-10-30T06:56:17.846Z,376.00
2017-10-30T06:57:17.832Z,388.00
2017-10-30T06:58:17.816Z,400.00
2017-10-30T06:59:17.803Z,408.00
2017-10-30T07:00:17.787Z,424.00
2017-10-30T07:01:17.774Z,440.00
2017-10-30T07:02:17.759Z,456.00
2017-10-30T07:03:17.745Z,472.00
2017-10-30T07:04:17.730Z,484.00
2017-10-30T07:05:17.716Z,504.00
2017-10-30T07:06:17.701Z,536.00
2017-10-30T07:07:17.687Z,584.00
2017-10-30T07:08:17.671Z,576.00
2017-10-30T07:09:17.657Z,556.00
2017-10-30T07:10:17.642Z,564.00
2017-10-30T07:11:17.639Z,584.00
2017-10-30T07:12:17.613Z,600.00
2017-10-30T07:13:17.599Z,608.00
2017-10-30T07:14:17.585Z,616.00
2017-10-30T07:15:17.570Z,644.00
2017-10-30T07:16:17.555Z,660.00
2017-10-30T07:17:17.542Z,676.00
2017-10-30T07:18:17.527Z,644.00
2017-10-30T07:19:17.513Z,680.00
2017-10-30T07:20:17.497Z,712.00
2017-10-30T07:21:17.484Z,728.00
2017-10-30T07:22:17.469Z,744.00
2017-10-30T07:23:17.453Z,764.00
2017-10-30T07:24:17.444Z,780.00
2017-10-30T07:25:17.425Z,800.00
2017-10-30T07:26:17.411Z,812.00
2017-10-30T07:27:17.423Z,828.00
2017-10-30T07:28:17.381Z,828.00
2017-10-30T07:29:17.367Z,784.00
2017-10-30T07:30:17.354Z,776.00
2017-10-30T07:31:17.339Z,768.00
2017-10-30T07:32:17.324Z,876.00
2017-10-30T07:33:17.316Z,900.00
2017-10-30T07:34:17.296Z,920.00
2017-10-30T07:35:17.281Z,936.00
2017-10-30T07:36:17.266Z,952.00
2017-10-30T07:37:17.253Z,972.00
2017-10-30T07:38:17.238Z,1004.00
2017-10-30T07:39:17.223Z,1032.00
2017-10-30T07:40:17.209Z,1048.00
2017-10-30T07:41:17.194Z,1052.00
2017-10-30T07:42:17.181Z,1064.00
2017-10-30T07:43:17.167Z,1072.00
2017-10-30T07:44:17.156Z,1072.00
2017-10-30T07:45:17.136Z,1064.00
2017-10-30T07:46:17.123Z,1056.00
2017-10-30T07:47:17.110Z,1064.00
2017-10-30T07:48:17.095Z,1088.00
2017-10-30T07:49:17.080Z,1108.00
2017-10-30T07:50:17.066Z,1132.00
2017-10-30T07:51:17.051Z,1152.00
2017-10-30T07:52:17.037Z,1168.00
2017-10-30T07:53:17.034Z,1188.00
2017-10-30T07:54:17.009Z,1196.00
2017-10-30T07:55:16.996Z,1204.00
2017-10-30T07:56:16.980Z,1200.00
2017-10-30T07:57:16.966Z,1216.00
2017-10-30T07:58:16.953Z,1220.00
2017-10-30T07:59:16.972Z,1232.00
2017-10-30T08:00:16.923Z,1256.00
2017-10-30T08:01:16.911Z,1276.00
2017-10-30T08:02:16.896Z,1292.00
2017-10-30T08:03:16.883Z,1308.00
2017-10-30T08:04:16.867Z,1320.00
2017-10-30T08:05:16.853Z,1356.00
2017-10-30T08:06:16.839Z,1368.00
2017-10-30T08:07:16.826Z,1408.00
2017-10-30T08:08:16.811Z,1440.00
2017-10-30T08:09:16.797Z,1500.00
2017-10-30T08:10:16.783Z,1556.00
2017-10-30T08:11:16.770Z,1576.00
2017-10-30T08:12:16.758Z,1588.00
2017-10-30T08:13:16.741Z,1596.00
2017-10-30T08:14:16.727Z,1572.00
2017-10-30T08:15:16.716Z,1520.00
2017-10-30T08:16:16.700Z,1468.00
2017-10-30T08:17:16.685Z,1456.00
2017-10-30T08:18:16.671Z,1456.00
2017-10-30T08:19:16.662Z,1468.00
2017-10-30T08:20:16.643Z,1480.00
2017-10-30T08:21:16.629Z,1536.00
2017-10-30T08:22:16.615Z,1548.00
2017-10-30T08:23:16.606Z,1516.00
2017-10-30T08:24:16.591Z,1464.00
2017-10-30T08:25:16.574Z,1416.00
2017-10-30T08:26:16.560Z,1536.00
2017-10-30T08:27:16.546Z,1576.00
2017-10-30T08:28:16.531Z,1580.00
2017-10-30T08:29:16.518Z,1652.00
2017-10-30T08:30:16.504Z,1668.00
2017-10-30T08:31:16.490Z,1704.00
2017-10-30T08:32:16.477Z,1688.00
2017-10-30T08:33:16.462Z,1700.00
2017-10-30T08:34:16.450Z,1720.00
2017-10-30T08:35:16.435Z,1752.00
2017-10-30T08:36:16.421Z,1836.00
2017-10-30T08:37:16.407Z,1884.00
2017-10-30T08:38:16.396Z,1976.00
2017-10-30T08:39:16.381Z,2000.00
2017-10-30T08:40:16.367Z,2008.00
2017-10-30T08:41:16.352Z,2012.00
2017-10-30T08:42:16.339Z,2020.00
2017-10-30T08:43:16.326Z,2020.00
2017-10-30T08:44:16.311Z,1956.00
2017-10-30T08:45:16.298Z,1928.00
2017-10-30T08:46:16.285Z,1944.00
2017-10-30T08:47:16.271Z,1908.00
2017-10-30T08:48:16.257Z,1952.00
2017-10-30T08:49:16.243Z,2016.00
2017-10-30T08:50:16.230Z,2092.00
2017-10-30T08:51:16.223Z,2204.00
2017-10-30T08:52:16.204Z,2392.00
2017-10-30T08:53:16.188Z,2420.00
2017-10-30T08:54:16.177Z,2556.00
2017-10-30T08:55:16.167Z,2620.00
2017-10-30T08:56:16.153Z,2704.00
2017-10-30T08:57:16.136Z,2812.00
2017-10-30T08:58:16.122Z,2860.00
2017-10-30T08:59:16.110Z,2908.00
2017-10-30T09:00:16.096Z,2960.00
2017-10-30T09:01:16.084Z,2968.00
2017-10-30T09:02:16.070Z,2960.00
2017-10-30T09:03:16.057Z,2988.00
2017-10-30T09:04:16.043Z,3016.00
2017-10-30T09:05:16.030Z,3060.00
2017-10-30T09:06:16.018Z,3092.00
2017-10-30T09:07:16.005Z,3204.00
2017-10-30T09:08:15.992Z,3628.00
2017-10-30T09:09:15.981Z,3876.00
2017-10-30T09:10:15.966Z,3548.00
2017-10-30T09:11:15.953Z,3308.00
2017-10-30T09:12:15.939Z,3316.00
2017-10-30T09:13:15.927Z,3388.00
2017-10-30T09:14:15.915Z,3408.00
2017-10-30T09:15:15.902Z,3380.00
2017-10-30T09:16:15.889Z,3412.00
2017-10-30T09:17:15.878Z,3460.00
2017-10-30T09:18:15.965Z,3464.00
2017-10-30T09:19:15.852Z,3480.00
2017-10-30T09:20:15.839Z,3508.00
2017-10-30T09:21:15.826Z,3516.00
2017-10-30T09:22:15.815Z,3528.00
2017-10-30T09:23:15.801Z,3544.00
2017-10-30T09:24:15.790Z,3588.00
2017-10-30T09:25:15.776Z,3588.00
2017-10-30T09:26:15.765Z,3628.00
2017-10-30T09:27:15.753Z,3688.00
2017-10-30T09:28:15.751Z,3744.00
2017-10-30T09:29:15.728Z,3780.00
2017-10-30T09:30:15.715Z,3932.00
2017-10-30T09:31:15.704Z,4116.00
2017-10-30T09:32:15.692Z,4124.00
2017-10-30T09:33:15.680Z,3984.00
2017-10-30T09:34:15.668Z,3968.00
2017-10-30T09:35:15.656Z,4024.00
2017-10-30T09:36:15.643Z,4080.00
2017-10-30T09:37:15.632Z,4180.00
2017-10-30T09:38:15.619Z,4248.00
2017-10-30T09:39:15.613Z,4080.00
2017-10-30T09:40:15.595Z,4060.00
2017-10-30T09:41:15.584Z,3928.00
2017-10-30T09:42:15.573Z,4080.00
2017-10-30T09:43:15.560Z,4116.00
2017-10-30T09:44:15.548Z,4076.00
2017-10-30T09:45:15.538Z,4004.00
2017-10-30T09:46:15.525Z,4016.00
2017-10-30T09:47:15.514Z,4068.00
2017-10-30T09:48:15.502Z,4108.00
2017-10-30T09:49:15.491Z,4140.00
2017-10-30T09:50:15.480Z,4148.00
2017-10-30T09:51:15.469Z,4180.00
2017-10-30T09:52:15.456Z,4208.00
2017-10-30T09:53:15.445Z,4236.00
2017-10-30T09:54:15.441Z,4272.00
2017-10-30T09:55:15.423Z,4288.00
2017-10-30T09:56:15.411Z,4312.00
2017-10-30T09:57:15.401Z,4348.00
2017-10-30T09:58:15.438Z,4356.00
2017-10-30T09:59:15.378Z,4364.00
2017-10-30T10:00:15.365Z,4392.00
2017-10-30T10:01:15.355Z,4476.00
2017-10-30T10:02:15.344Z,4500.00
2017-10-30T10:03:15.383Z,4456.00
2017-10-30T10:04:15.321Z,4516.00
2017-10-30T10:05:15.311Z,4528.00
2017-10-30T10:06:15.300Z,4512.00
2017-10-30T10:07:15.289Z,4528.00
2017-10-30T10:08:15.328Z,4540.00
2017-10-30T10:09:15.267Z,4600.00
2017-10-30T10:10:15.256Z,4680.00
2017-10-30T10:11:15.249Z,4676.00
2017-10-30T10:12:15.233Z,4648.00
2017-10-30T10:13:15.324Z,4676.00
2017-10-30T10:14:15.213Z,4720.00
2017-10-30T10:15:15.202Z,4792.00
2017-10-30T10:16:15.190Z,4864.00
2017-10-30T10:17:15.180Z,4936.00
2017-10-30T10:18:15.170Z,5048.00
2017-10-30T10:19:15.160Z,5148.00
2017-10-30T10:20:15.149Z,5284.00
2017-10-30T10:21:15.137Z,5284.00
2017-10-30T10:22:15.128Z,4216.00
2017-10-30T10:23:15.130Z,4580.00
2017-10-30T10:24:15.106Z,4952.00
2017-10-30T10:25:15.096Z,4768.00
2017-10-30T10:26:15.086Z,4932.00
2017-10-30T10:27:15.076Z,4972.00
2017-10-30T10:28:15.065Z,4972.00
2017-10-30T10:29:15.055Z,5048.00
2017-10-30T10:30:15.045Z,5072.00
2017-10-30T10:31:15.040Z,5020.00
2017-10-30T10:32:15.024Z,5040.00
2017-10-30T10:33:15.013Z,5044.00
2017-10-30T10:34:15.004Z,5100.00
2017-10-30T10:35:14.996Z,5216.00
2017-10-30T10:36:14.983Z,5188.00
2017-10-30T10:37:14.973Z,5480.00
2017-10-30T10:38:14.965Z,4068.00
2017-10-30T10:39:14.954Z,5324.00
2017-10-30T10:40:14.943Z,5500.00
2017-10-30T10:41:14.934Z,5808.00
2017-10-30T10:42:14.924Z,6516.00
2017-10-30T10:43:14.915Z,6432.00
2017-10-30T10:44:14.906Z,6252.00
2017-10-30T10:45:14.901Z,5580.00
2017-10-30T10:46:14.889Z,5860.00
2017-10-30T10:47:14.882Z,7460.00
2017-10-30T10:48:14.864Z,7948.00
2017-10-30T10:49:14.855Z,7484.00
2017-10-30T10:50:14.845Z,8472.00
2017-10-30T10:51:14.836Z,8464.00
2017-10-30T10:52:14.826Z,7420.00
2017-10-30T10:53:14.816Z,3616.00
2017-10-30T10:54:14.808Z,3212.00
2017-10-30T10:55:14.797Z,3568.00
2017-10-30T10:56:14.787Z,4768.00
2017-10-30T10:57:14.784Z,7472.00
2017-10-30T10:58:14.769Z,6004.00
2017-10-30T10:59:14.763Z,7456.00
2017-10-30T11:00:14.748Z,9696.00
2017-10-30T11:01:14.740Z,8744.00
2017-10-30T11:02:14.729Z,7064.00
2017-10-30T11:03:14.720Z,4896.00
2017-10-30T11:04:14.709Z,7580.00
2017-10-30T11:05:14.700Z,7856.00
2017-10-30T11:06:14.692Z,8248.00
2017-10-30T11:07:14.681Z,5416.00
2017-10-30T11:08:14.671Z,6572.00
2017-10-30T11:09:14.663Z,6844.00
2017-10-30T11:10:14.652Z,7392.00
2017-10-30T11:11:14.642Z,8216.00
2017-10-30T11:12:14.632Z,7920.00
2017-10-30T11:13:14.623Z,8144.00
2017-10-30T11:14:14.613Z,8396.00
2017-10-30T11:15:14.604Z,8228.00
2017-10-30T11:16:14.594Z,8448.00
2017-10-30T11:17:14.589Z,6812.00
2017-10-30T11:18:14.575Z,8632.00
2017-10-30T11:19:14.567Z,6192.00
2017-10-30T11:20:14.556Z,7944.00
2017-10-30T11:21:14.548Z,2260.00
2017-10-30T11:22:14.539Z,1844.00
2017-10-30T11:23:14.532Z,1688.00
2017-10-30T11:24:14.519Z,1584.00
2017-10-30T11:25:14.509Z,1612.00
2017-10-30T11:26:14.499Z,1948.00
2017-10-30T11:27:14.495Z,3128.00
2017-10-30T11:28:14.480Z,4756.00
2017-10-30T11:29:14.471Z,10360.00
2017-10-30T11:30:14.472Z,4876.00
2017-10-30T11:31:14.451Z,9988.00
2017-10-30T11:32:14.441Z,10352.00
2017-10-30T11:33:14.433Z,10572.00
2017-10-30T11:34:14.421Z,10400.00
2017-10-30T11:35:14.412Z,10188.00
2017-10-30T11:36:14.401Z,9928.00
2017-10-30T11:37:14.391Z,10096.00
2017-10-30T11:38:14.382Z,10380.00
2017-10-30T11:39:14.372Z,10828.00
2017-10-30T11:40:14.362Z,11152.00
2017-10-30T11:41:14.352Z,11416.00
2017-10-30T11:42:14.343Z,11824.00
2017-10-30T11:43:14.333Z,12248.00
2017-10-30T11:44:14.324Z,12568.00
2017-10-30T11:45:14.314Z,13272.00
2017-10-30T11:46:14.305Z,13668.00
2017-10-30T11:47:14.296Z,14512.00
2017-10-30T11:48:14.286Z,15220.00
2017-10-30T11:49:14.277Z,16244.00
2017-10-30T11:50:14.267Z,17760.00
2017-10-30T11:51:14.258Z,19200.00
2017-10-30T11:52:14.249Z,21248.00
2017-10-30T11:53:14.239Z,22624.00
2017-10-30T11:54:14.230Z,25440.00
2017-10-30T11:55:14.221Z,27872.00
2017-10-30T11:56:14.217Z,28160.00
2017-10-30T11:57:14.203Z,24800.00
2017-10-30T11:58:14.194Z,27840.00
2017-10-30T11:59:14.185Z,27808.00
2017-10-30T12:00:14.176Z,4192.00
2017-10-30T12:01:14.175Z,24992.00
2017-10-30T12:02:14.158Z,8284.00
2017-10-30T12:03:14.150Z,27488.00
2017-10-30T12:04:14.138Z,28224.00
2017-10-30T12:05:14.141Z,28864.00
2017-10-30T12:06:14.121Z,29056.00
2017-10-30T12:07:14.111Z,28128.00
2017-10-30T12:08:14.103Z,11172.00
2017-10-30T12:09:14.097Z,3444.00
2017-10-30T12:10:14.084Z,4568.00
2017-10-30T12:11:14.075Z,5572.00
2017-10-30T12:12:14.066Z,7592.00
2017-10-30T12:13:14.056Z,7280.00
2017-10-30T12:14:14.048Z,6116.00
2017-10-30T12:15:14.041Z,5640.00
2017-10-30T12:16:14.028Z,6496.00
2017-10-30T12:17:14.027Z,6540.00
2017-10-30T12:18:14.009Z,6532.00
2017-10-30T12:19:14.000Z,5796.00
2017-10-30T12:20:13.991Z,4368.00
2017-10-30T12:21:13.980Z,3064.00
2017-10-30T12:22:13.970Z,2432.00
2017-10-30T12:23:13.961Z,2060.00
2017-10-30T12:24:13.950Z,2060.00
2017-10-30T12:25:13.940Z,2216.00
2017-10-30T12:26:13.931Z,2480.00
2017-10-30T12:27:13.921Z,2732.00
2017-10-30T12:28:13.910Z,3064.00
2017-10-30T12:29:13.900Z,4272.00
2017-10-30T12:30:13.890Z,13560.00
2017-10-30T12:31:13.880Z,10020.00
2017-10-30T12:32:13.873Z,13792.00
2017-10-30T12:33:13.858Z,25856.00
2017-10-30T12:34:13.848Z,29632.00
2017-10-30T12:35:13.839Z,28896.00
2017-10-30T12:36:13.828Z,32224.00
2017-10-30T12:37:13.817Z,31744.00
2017-10-30T12:38:13.807Z,32448.00
2017-10-30T12:39:13.797Z,33312.00
2017-10-30T12:40:13.785Z,32384.00
2017-10-30T12:41:13.776Z,32832.00